createdAt,value
2017-05-21T00:00:56.382Z,72.91
2017-05-21T00:01:58.229Z,72.72
2017-05-21T00:03:00.065Z,72.53
2017-05-21T00:04:01.879Z,72.33
2017-05-21T00:05:03.968Z,72.43
2017-05-21T00:06:05.789Z,72.24
2017-05-21T00:07:07.626Z,72.53
2017-05-21T00:08:09.473Z,72.43
2017-05-21T00:09:23.570Z,72.05
2017-05-21T00:10:25.422Z,72.14
2017-05-21T00:11:27.269Z,72.05
2017-05-21T00:12:29.108Z,72.05
2017-05-21T00:13:30.923Z,71.95
2017-05-21T00:14:32.736Z,72.33
2017-05-21T00:15:34.596Z,72.05
2017-05-21T00:16:36.421Z,72.05
2017-05-21T00:17:38.257Z,72.05
2017-05-21T00:18:52.413Z,72.05
2017-05-21T00:19:54.250Z,72.43
2017-05-21T00:20:56.392Z,71.86
2017-05-21T00:21:58.212Z,71.95
2017-05-21T00:23:00.048Z,72.05
2017-05-21T00:24:01.871Z,71.95
2017-05-21T00:25:03.703Z,71.95
2017-05-21T00:26:05.570Z,72.43
2017-05-21T00:27:07.409Z,72.24
2017-05-21T00:28:21.512Z,72.43
2017-05-21T00:29:23.349Z,72.68
2017-05-21T00:30:25.191Z,72.81
2017-05-21T00:31:27.034Z,72.72
2017-05-21T00:32:28.873Z,72.81
2017-05-21T00:33:30.717Z,72.62
2017-05-21T00:34:32.555Z,72.91
2017-05-21T00:35:34.398Z,73.00
2017-05-21T00:36:36.440Z,72.53
2017-05-21T00:37:50.563Z,72.72
2017-05-21T00:38:52.408Z,72.53
2017-05-21T00:39:54.248Z,72.53
2017-05-21T00:40:56.093Z,72.24
2017-05-21T00:41:58.026Z,72.14
2017-05-21T00:42:59.846Z,72.43
2017-05-21T00:44:01.684Z,72.33
2017-05-21T00:45:03.503Z,71.86
2017-05-21T00:46:05.343Z,72.33
2017-05-21T00:47:19.493Z,72.24
2017-05-21T00:48:21.329Z,72.33
2017-05-21T00:49:23.172Z,72.43
2017-05-21T00:50:25.016Z,72.43
2017-05-21T00:51:26.852Z,72.33
2017-05-21T00:52:28.944Z,72.33
2017-05-21T00:53:30.781Z,72.24
2017-05-21T00:54:32.602Z,72.43
2017-05-21T00:55:34.444Z,72.24
2017-05-21T00:56:48.617Z,72.81
2017-05-21T00:57:50.452Z,72.49
2017-05-21T00:58:52.275Z,72.58
2017-05-21T00:59:54.111Z,72.78
2017-05-21T01:00:55.954Z,72.58
2017-05-21T01:01:57.785Z,72.68
2017-05-21T01:02:59.907Z,72.58
2017-05-21T01:04:01.745Z,72.87
2017-05-21T01:05:03.563Z,72.78
2017-05-21T01:06:17.737Z,72.49
2017-05-21T01:07:19.573Z,72.78
2017-05-21T01:08:21.491Z,72.87
2017-05-21T01:09:23.304Z,73.16
2017-05-21T01:10:25.124Z,73.07
2017-05-21T01:11:26.966Z,73.83
2017-05-21T01:12:28.803Z,73.73
2017-05-21T01:13:30.874Z,73.92
2017-05-21T01:14:32.716Z,73.92
2017-05-21T01:15:46.886Z,73.92
2017-05-21T01:16:48.727Z,73.63
2017-05-21T01:17:50.575Z,73.54
2017-05-21T01:18:52.715Z,73.44
2017-05-21T01:19:54.560Z,73.83
2017-05-21T01:20:56.396Z,73.73
2017-05-21T01:21:58.239Z,73.63
2017-05-21T01:23:00.074Z,74.02
2017-05-21T01:24:01.940Z,73.44
2017-05-21T01:25:16.086Z,73.54
2017-05-21T01:26:17.921Z,73.79
2017-05-21T01:27:19.780Z,74.02
2017-05-21T01:28:21.624Z,73.54
2017-05-21T01:29:23.565Z,73.54
2017-05-21T01:30:25.406Z,73.63
2017-05-21T01:31:27.247Z,73.60
2017-05-21T01:32:29.093Z,73.50
2017-05-21T01:33:30.909Z,73.73
2017-05-21T01:34:45.081Z,73.79
2017-05-21T01:35:46.922Z,73.83
2017-05-21T01:36:48.766Z,73.88
2017-05-21T01:37:50.602Z,73.88
2017-05-21T01:38:52.449Z,73.88
2017-05-21T01:39:54.315Z,73.79
2017-05-21T01:40:56.151Z,73.88
2017-05-21T01:41:57.966Z,73.69
2017-05-21T01:42:59.778Z,73.60
2017-05-21T01:44:13.927Z,74.17
2017-05-21T01:45:15.742Z,74.37
2017-05-21T01:46:17.552Z,74.93
2017-05-21T01:47:19.373Z,74.46
2017-05-21T01:48:21.210Z,75.13
2017-05-21T01:49:23.051Z,75.32
2017-05-21T01:50:24.968Z,75.85
2017-05-21T01:51:26.814Z,75.57
2017-05-21T01:52:28.653Z,76.04
2017-05-21T01:53:42.822Z,76.33
2017-05-21T01:54:44.640Z,76.62
2017-05-21T01:55:46.492Z,76.90
2017-05-21T01:56:48.322Z,77.09
2017-05-21T01:57:50.160Z,77.38
2017-05-21T01:58:51.999Z,77.28
2017-05-21T01:59:53.842Z,76.81
2017-05-21T02:00:55.685Z,76.90
2017-05-21T02:01:57.528Z,76.71
2017-05-21T02:03:11.699Z,76.42
2017-05-21T02:04:13.538Z,76.37
2017-05-21T02:05:15.354Z,75.66
2017-05-21T02:06:17.197Z,76.18
2017-05-21T02:07:19.012Z,75.51
2017-05-21T02:08:20.853Z,75.98
2017-05-21T02:09:22.689Z,75.60
2017-05-21T02:10:24.528Z,76.33
2017-05-21T02:11:26.720Z,76.71
2017-05-21T02:12:40.843Z,77.28
2017-05-21T02:13:42.659Z,77.47
2017-05-21T02:14:44.500Z,77.86
2017-05-21T02:15:46.340Z,78.05
2017-05-21T02:16:48.206Z,78.10
2017-05-21T02:17:50.045Z,78.30
2017-05-21T02:18:51.885Z,78.49
2017-05-21T02:19:53.730Z,78.96
2017-05-21T02:20:55.615Z,79.53
2017-05-21T02:22:09.944Z,78.96
2017-05-21T02:23:11.790Z,79.91
2017-05-21T02:24:13.626Z,79.91
2017-05-21T02:25:15.443Z,79.35
2017-05-21T02:26:17.256Z,79.44
2017-05-21T02:27:19.124Z,79.44
2017-05-21T02:28:20.969Z,79.63
2017-05-21T02:29:22.780Z,79.72
2017-05-21T02:30:24.617Z,79.63
2017-05-21T02:31:38.867Z,79.63
2017-05-21T02:32:40.712Z,80.11
2017-05-21T02:33:42.547Z,79.82
2017-05-21T02:34:44.391Z,80.20
2017-05-21T02:35:46.208Z,80.01
2017-05-21T02:36:48.053Z,80.58
2017-05-21T02:37:49.895Z,80.49
2017-05-21T02:38:51.739Z,80.68
2017-05-21T02:39:53.575Z,80.39
2017-05-21T02:41:07.725Z,80.20
2017-05-21T02:42:09.567Z,80.20
2017-05-21T02:43:11.415Z,80.30
2017-05-21T02:44:13.252Z,81.06
2017-05-21T02:45:15.074Z,80.49
2017-05-21T02:46:16.912Z,80.77
2017-05-21T02:47:18.731Z,80.87
2017-05-21T02:48:20.569Z,80.20
2017-05-21T02:49:22.408Z,80.49
2017-05-21T02:50:36.528Z,80.30
2017-05-21T02:51:38.350Z,80.20
2017-05-21T02:52:40.188Z,79.44
2017-05-21T02:53:42.309Z,79.82
2017-05-21T02:54:44.123Z,79.53
2017-05-21T02:55:45.941Z,79.82
2017-05-21T02:56:47.780Z,79.53
2017-05-21T02:57:49.595Z,79.86
2017-05-21T02:58:51.415Z,79.44
2017-05-21T03:00:05.539Z,79.06
2017-05-21T03:01:07.386Z,79.57
2017-05-21T03:02:09.235Z,79.10
2017-05-21T03:03:11.076Z,78.91
2017-05-21T03:04:13.324Z,78.58
2017-05-21T03:05:15.164Z,78.52
2017-05-21T03:06:17.003Z,78.62
2017-05-21T03:07:18.839Z,78.81
2017-05-21T03:08:20.661Z,78.33
2017-05-21T03:09:34.833Z,78.33
2017-05-21T03:10:36.651Z,78.23
2017-05-21T03:11:38.467Z,77.86
2017-05-21T03:12:40.313Z,78.33
2017-05-21T03:13:42.168Z,77.67
2017-05-21T03:14:44.092Z,77.67
2017-05-21T03:15:45.909Z,77.38
2017-05-21T03:16:47.751Z,77.28
2017-05-21T03:17:49.568Z,77.09
2017-05-21T03:19:03.738Z,76.52
2017-05-21T03:20:05.557Z,76.81
2017-05-21T03:21:07.378Z,76.62
2017-05-21T03:22:09.220Z,76.56
2017-05-21T03:23:11.066Z,75.89
2017-05-21T03:24:12.904Z,75.60
2017-05-21T03:25:15.051Z,75.42
2017-05-21T03:26:16.865Z,75.51
2017-05-21T03:27:18.714Z,75.98
2017-05-21T03:28:32.809Z,75.79
2017-05-21T03:29:34.627Z,75.70
2017-05-21T03:30:36.474Z,75.70
2017-05-21T03:31:38.320Z,75.42
2017-05-21T03:32:40.164Z,75.51
2017-05-21T03:33:41.987Z,75.03
2017-05-21T03:34:43.827Z,75.03
2017-05-21T03:35:46.074Z,75.03
2017-05-21T03:36:47.917Z,74.84
2017-05-21T03:38:02.093Z,74.93
2017-05-21T03:39:03.939Z,74.46
2017-05-21T03:40:05.783Z,74.37
2017-05-21T03:41:07.629Z,74.65
2017-05-21T03:42:09.469Z,74.46
2017-05-21T03:43:11.288Z,74.17
2017-05-21T03:44:13.114Z,74.17
2017-05-21T03:45:14.955Z,74.37
2017-05-21T03:46:17.021Z,74.74
2017-05-21T03:47:31.131Z,73.92
2017-05-21T03:48:32.972Z,73.73
2017-05-21T03:49:34.789Z,73.73
2017-05-21T03:50:36.616Z,73.88
2017-05-21T03:51:38.464Z,73.73
2017-05-21T03:52:40.313Z,73.25
2017-05-21T03:53:42.149Z,73.16
2017-05-21T03:54:43.971Z,72.78
2017-05-21T03:55:45.796Z,72.87
2017-05-21T03:57:00.430Z,72.11
2017-05-21T03:58:02.254Z,72.24
2017-05-21T03:59:04.097Z,72.24
2017-05-21T04:00:05.941Z,71.47
2017-05-21T04:01:07.763Z,71.28
2017-05-21T04:02:09.630Z,70.75
2017-05-21T04:03:11.481Z,70.46
2017-05-21T04:04:13.319Z,70.27
2017-05-21T04:05:15.141Z,70.27
2017-05-21T04:06:29.500Z,69.70
2017-05-21T04:07:31.347Z,69.02
2017-05-21T04:08:33.190Z,68.77
2017-05-21T04:09:35.038Z,68.77
2017-05-21T04:10:36.887Z,67.72
2017-05-21T04:11:38.730Z,66.99
2017-05-21T04:12:40.594Z,65.97
2017-05-21T04:13:42.425Z,64.82
2017-05-21T04:14:44.266Z,63.96
2017-05-21T04:15:58.453Z,62.74
2017-05-21T04:17:00.271Z,61.82
2017-05-21T04:18:02.547Z,61.53
2017-05-21T04:19:04.393Z,61.08
2017-05-21T04:20:06.219Z,59.93
2017-05-21T04:21:08.043Z,59.00
2017-05-21T04:22:09.865Z,58.23
2017-05-21T04:23:11.722Z,57.97
2017-05-21T04:24:13.569Z,56.85
2017-05-21T04:25:27.705Z,55.79
2017-05-21T04:26:29.552Z,55.44
2017-05-21T04:27:31.382Z,55.05
2017-05-21T04:28:33.636Z,54.19
2017-05-21T04:29:35.458Z,53.35
2017-05-21T04:30:37.308Z,52.39
2017-05-21T04:31:39.138Z,52.03
2017-05-21T04:32:40.996Z,51.35
2017-05-21T04:33:42.849Z,51.07
2017-05-21T04:34:57.035Z,50.61
2017-05-21T04:35:58.881Z,50.32
2017-05-21T04:37:00.738Z,49.84
2017-05-21T04:38:02.564Z,49.68
2017-05-21T04:39:04.817Z,49.27
2017-05-21T04:40:06.671Z,48.71
2017-05-21T04:41:08.533Z,48.43
2017-05-21T04:42:10.379Z,48.52
2017-05-21T04:43:12.203Z,48.25
2017-05-21T04:44:26.415Z,47.77
2017-05-21T04:45:28.271Z,47.39
2017-05-21T04:46:30.089Z,47.58
2017-05-21T04:47:31.923Z,48.33
2017-05-21T04:48:33.773Z,48.33
2017-05-21T04:49:35.829Z,49.07
2017-05-21T04:50:37.683Z,49.65
2017-05-21T04:51:39.542Z,50.23
2017-05-21T04:52:41.392Z,49.87
2017-05-21T04:53:55.506Z,49.68
2017-05-21T04:54:57.353Z,49.29
2017-05-21T04:55:59.185Z,49.00
2017-05-21T04:57:01.038Z,48.33
2017-05-21T04:58:02.869Z,48.52
2017-05-21T04:59:04.727Z,48.61
2017-05-21T05:00:06.918Z,48.81
2017-05-21T05:01:08.750Z,49.10
2017-05-21T05:02:10.608Z,49.10
2017-05-21T05:03:24.740Z,49.65
2017-05-21T05:04:26.574Z,50.23
2017-05-21T05:05:28.421Z,50.81
2017-05-21T05:06:30.273Z,50.87
2017-05-21T05:07:32.100Z,51.26
2017-05-21T05:08:33.954Z,51.45
2017-05-21T05:09:35.802Z,51.74
2017-05-21T05:10:37.679Z,51.26
2017-05-21T05:11:39.538Z,51.45
2017-05-21T05:12:53.675Z,52.00
2017-05-21T05:13:55.500Z,52.48
2017-05-21T05:14:57.334Z,53.45
2017-05-21T05:15:59.483Z,52.68
2017-05-21T05:17:01.338Z,53.42
2017-05-21T05:18:03.190Z,53.42
2017-05-21T05:19:05.015Z,54.09
2017-05-21T05:20:06.869Z,54.09
2017-05-21T05:21:08.817Z,54.16
2017-05-21T05:22:22.928Z,54.83
2017-05-21T05:23:24.780Z,54.64
2017-05-21T05:24:26.631Z,54.55
2017-05-21T05:25:28.482Z,54.83
2017-05-21T05:26:30.336Z,54.93
2017-05-21T05:27:32.189Z,55.38
2017-05-21T05:28:34.014Z,56.24
2017-05-21T05:29:35.866Z,56.22
2017-05-21T05:30:37.699Z,56.31
2017-05-21T05:31:51.877Z,56.60
2017-05-21T05:32:53.732Z,57.85
2017-05-21T05:33:55.616Z,56.89
2017-05-21T05:34:57.419Z,56.76
2017-05-21T05:35:59.280Z,57.24
2017-05-21T05:37:01.332Z,57.24
2017-05-21T05:38:03.151Z,57.24
2017-05-21T05:39:05.006Z,56.86
2017-05-21T05:40:06.860Z,54.91
2017-05-21T05:41:21.388Z,55.49
2017-05-21T05:42:23.220Z,55.97
2017-05-21T05:43:25.045Z,56.81
2017-05-21T05:44:26.881Z,56.81
2017-05-21T05:45:28.722Z,57.09
2017-05-21T05:46:30.577Z,56.90
2017-05-21T05:47:32.447Z,56.42
2017-05-21T05:48:34.276Z,56.71
2017-05-21T05:49:36.098Z,56.61
2017-05-21T05:50:50.259Z,56.23
2017-05-21T05:51:52.108Z,56.42
2017-05-21T05:52:54.137Z,56.52
2017-05-21T05:53:56.017Z,56.32
2017-05-21T05:54:57.929Z,56.13
2017-05-21T05:55:59.773Z,56.52
2017-05-21T05:57:01.628Z,56.52
2017-05-21T05:58:03.676Z,56.77
2017-05-21T05:59:05.502Z,56.59
2017-05-21T06:00:19.664Z,57.09
2017-05-21T06:01:21.491Z,56.71
2017-05-21T06:02:23.339Z,56.81
2017-05-21T06:03:25.290Z,56.71
2017-05-21T06:04:27.122Z,57.38
2017-05-21T06:05:28.946Z,57.38
2017-05-21T06:06:30.795Z,57.19
2017-05-21T06:07:32.624Z,56.54
2017-05-21T06:08:34.469Z,56.61
2017-05-21T06:09:48.608Z,57.38
2017-05-21T06:10:50.464Z,56.74
2017-05-21T06:11:52.310Z,56.42
2017-05-21T06:12:54.136Z,56.16
2017-05-21T06:13:56.094Z,56.04
2017-05-21T06:14:57.949Z,56.13
2017-05-21T06:15:59.767Z,56.16
2017-05-21T06:17:01.625Z,55.75
2017-05-21T06:18:03.464Z,55.36
2017-05-21T06:19:17.607Z,55.65
2017-05-21T06:20:19.432Z,55.65
2017-05-21T06:21:21.285Z,55.11
2017-05-21T06:22:23.141Z,55.65
2017-05-21T06:23:24.965Z,55.11
2017-05-21T06:24:26.839Z,54.99
2017-05-21T06:25:28.694Z,54.79
2017-05-21T06:26:30.547Z,53.77
2017-05-21T06:27:32.394Z,53.45
2017-05-21T06:28:46.579Z,53.67
2017-05-21T06:29:48.429Z,53.67
2017-05-21T06:30:50.254Z,52.93
2017-05-21T06:31:52.081Z,51.97
2017-05-21T06:32:53.936Z,51.28
2017-05-21T06:33:55.782Z,51.28
2017-05-21T06:34:57.661Z,51.37
2017-05-21T06:35:59.484Z,50.22
2017-05-21T06:37:01.345Z,50.41
2017-05-21T06:38:15.443Z,50.89
2017-05-21T06:39:17.292Z,50.70
2017-05-21T06:40:19.175Z,49.93
2017-05-21T06:41:21.021Z,49.84
2017-05-21T06:42:22.855Z,49.93
2017-05-21T06:43:24.687Z,49.84
2017-05-21T06:44:26.508Z,49.55
2017-05-21T06:45:28.504Z,48.97
2017-05-21T06:46:30.361Z,48.97
2017-05-21T06:47:44.488Z,49.07
2017-05-21T06:48:46.310Z,48.97
2017-05-21T06:49:48.138Z,49.07
2017-05-21T06:50:50.164Z,48.97
2017-05-21T06:51:51.994Z,48.97
2017-05-21T06:52:53.843Z,49.07
2017-05-21T06:53:55.667Z,48.52
2017-05-21T06:54:57.500Z,48.23
2017-05-21T06:55:59.548Z,48.11
2017-05-21T06:57:13.683Z,48.78
2017-05-21T06:58:15.532Z,48.21
2017-05-21T06:59:17.356Z,48.21
2017-05-21T07:00:19.188Z,48.30
2017-05-21T07:01:21.035Z,49.00
2017-05-21T07:02:22.866Z,49.10
2017-05-21T07:03:24.717Z,49.10
2017-05-21T07:04:26.566Z,48.90
2017-05-21T07:05:28.417Z,48.80
2017-05-21T07:06:42.872Z,49.19
2017-05-21T07:07:44.701Z,49.26
2017-05-21T07:08:46.524Z,49.65
2017-05-21T07:09:48.355Z,49.74
2017-05-21T07:10:50.210Z,49.65
2017-05-21T07:11:52.382Z,50.12
2017-05-21T07:12:54.233Z,50.32
2017-05-21T07:13:56.086Z,50.99
2017-05-21T07:14:57.939Z,50.99
2017-05-21T07:16:12.048Z,49.93
2017-05-21T07:17:13.900Z,50.03
2017-05-21T07:18:15.757Z,50.41
2017-05-21T07:19:17.605Z,50.70
2017-05-21T07:20:19.464Z,51.18
2017-05-21T07:21:21.283Z,50.99
2017-05-21T07:22:23.187Z,50.24
2017-05-21T07:23:25.011Z,50.53
2017-05-21T07:24:26.862Z,50.53
2017-05-21T07:25:41.014Z,50.24
2017-05-21T07:26:42.870Z,50.37
2017-05-21T07:27:44.727Z,50.08
2017-05-21T07:28:46.581Z,50.27
2017-05-21T07:29:48.398Z,50.84
2017-05-21T07:30:50.228Z,50.27
2017-05-21T07:31:52.074Z,50.84
2017-05-21T07:32:53.948Z,50.84
2017-05-21T07:33:55.773Z,50.75
2017-05-21T07:35:09.887Z,50.75
2017-05-21T07:36:11.737Z,51.23
2017-05-21T07:37:13.591Z,51.30
2017-05-21T07:38:15.440Z,52.07
2017-05-21T07:39:17.362Z,52.36
2017-05-21T07:40:19.171Z,52.55
2017-05-21T07:41:21.017Z,52.07
2017-05-21T07:42:22.846Z,53.50
2017-05-21T07:43:24.947Z,53.60
2017-05-21T07:44:39.136Z,53.96
2017-05-21T07:45:40.991Z,53.96
2017-05-21T07:46:42.839Z,54.24
2017-05-21T07:47:44.669Z,54.27
2017-05-21T07:48:46.517Z,53.79
2017-05-21T07:49:48.346Z,53.70
2017-05-21T07:50:50.203Z,53.31
2017-05-21T07:51:52.051Z,52.55
2017-05-21T07:52:53.905Z,53.22
2017-05-21T07:54:08.333Z,54.08
2017-05-21T07:55:10.180Z,53.99
2017-05-21T07:56:12.003Z,53.60
2017-05-21T07:57:13.829Z,53.70
2017-05-21T07:58:15.749Z,53.60
2017-05-21T07:59:17.839Z,53.03
2017-05-21T08:00:19.667Z,53.53
2017-05-21T08:01:21.515Z,54.21
2017-05-21T08:02:23.375Z,53.91
2017-05-21T08:03:37.793Z,53.89
2017-05-21T08:04:39.651Z,54.17
2017-05-21T08:05:41.495Z,54.66
2017-05-21T08:06:43.346Z,54.56
2017-05-21T08:07:45.202Z,54.17
2017-05-21T08:08:47.055Z,54.56
2017-05-21T08:09:48.958Z,54.75
2017-05-21T08:10:50.805Z,54.66
2017-05-21T08:11:52.626Z,54.85
2017-05-21T08:13:06.787Z,54.27
2017-05-21T08:14:08.608Z,54.91
2017-05-21T08:15:10.487Z,54.63
2017-05-21T08:16:12.454Z,54.75
2017-05-21T08:17:14.379Z,54.94
2017-05-21T08:18:16.232Z,55.42
2017-05-21T08:19:18.087Z,54.56
2017-05-21T08:20:20.035Z,54.08
2017-05-21T08:21:21.892Z,54.56
2017-05-21T08:22:36.026Z,54.46
2017-05-21T08:23:37.875Z,55.04
2017-05-21T08:24:39.699Z,54.27
2017-05-21T08:25:44.759Z,53.99
2017-05-21T08:26:46.614Z,53.12
2017-05-21T08:27:48.623Z,53.89
2017-05-21T08:28:50.454Z,54.56
2017-05-21T08:29:52.307Z,54.56
2017-05-21T08:30:54.346Z,53.79
2017-05-21T08:32:08.539Z,53.53
2017-05-21T08:33:10.362Z,54.01
2017-05-21T08:34:12.213Z,53.82
2017-05-21T08:35:14.066Z,53.91
2017-05-21T08:36:15.923Z,53.24
2017-05-21T08:37:17.780Z,53.63
2017-05-21T08:38:19.597Z,52.67
2017-05-21T08:39:21.451Z,51.90
2017-05-21T08:40:23.281Z,52.48
2017-05-21T08:41:37.413Z,53.34
2017-05-21T08:42:39.268Z,52.57
2017-05-21T08:43:41.203Z,51.23
2017-05-21T08:44:43.028Z,51.42
2017-05-21T08:45:44.855Z,51.32
2017-05-21T08:46:46.724Z,51.32
2017-05-21T08:47:48.585Z,51.71
2017-05-21T08:48:50.438Z,51.06
2017-05-21T08:49:52.305Z,50.84
2017-05-21T08:51:06.595Z,51.71
2017-05-21T08:52:08.487Z,51.14
2017-05-21T08:53:10.345Z,51.04
2017-05-21T08:54:12.196Z,51.45
2017-05-21T08:55:14.055Z,51.06
2017-05-21T08:56:15.906Z,51.06
2017-05-21T08:57:17.933Z,51.45
2017-05-21T08:58:19.763Z,50.78
2017-05-21T08:59:21.615Z,50.39
2017-05-21T09:00:35.796Z,50.20
2017-05-21T09:01:37.652Z,49.91
2017-05-21T09:02:40.184Z,50.20
2017-05-21T09:03:42.134Z,50.39
2017-05-21T09:04:44.024Z,50.49
2017-05-21T09:05:45.851Z,50.58
2017-05-21T09:06:47.687Z,50.29
2017-05-21T09:07:49.536Z,50.10
2017-05-21T09:08:51.357Z,49.33
2017-05-21T09:10:05.630Z,49.07
2017-05-21T09:11:07.470Z,49.36
2017-05-21T09:12:09.299Z,50.03
2017-05-21T09:13:11.254Z,49.74
2017-05-21T09:14:13.108Z,49.65
2017-05-21T09:15:14.930Z,48.49
2017-05-21T09:16:16.761Z,48.88
2017-05-21T09:17:18.622Z,48.49
2017-05-21T09:18:20.469Z,49.05
2017-05-21T09:19:34.626Z,49.05
2017-05-21T09:20:36.454Z,49.15
2017-05-21T09:21:38.306Z,49.33
2017-05-21T09:22:40.253Z,49.62
2017-05-21T09:23:42.191Z,49.46
2017-05-21T09:24:44.016Z,48.88
2017-05-21T09:25:45.859Z,49.07
2017-05-21T09:26:47.712Z,48.79
2017-05-21T09:27:49.543Z,49.17
2017-05-21T09:29:03.725Z,49.26
2017-05-21T09:30:05.571Z,48.21
2017-05-21T09:31:07.400Z,48.49
2017-05-21T09:32:09.234Z,49.07
2017-05-21T09:33:11.083Z,49.05
2017-05-21T09:34:13.284Z,49.74
2017-05-21T09:35:15.139Z,49.36
2017-05-21T09:36:17.045Z,49.17
2017-05-21T09:37:18.927Z,49.17
2017-05-21T09:38:33.372Z,50.23
2017-05-21T09:39:35.220Z,49.74
2017-05-21T09:40:37.075Z,48.40
2017-05-21T09:41:38.900Z,47.25
2017-05-21T09:42:40.765Z,47.72
2017-05-21T09:43:42.613Z,48.04
2017-05-21T09:44:44.488Z,47.08
2017-05-21T09:45:46.334Z,46.86
2017-05-21T09:46:48.166Z,46.59
2017-05-21T09:48:02.352Z,46.98
2017-05-21T09:49:04.206Z,46.89
2017-05-21T09:50:06.089Z,46.59
2017-05-21T09:51:07.941Z,46.79
2017-05-21T09:52:09.769Z,46.79
2017-05-21T09:53:11.618Z,46.62
2017-05-21T09:54:13.453Z,46.31
2017-05-21T09:55:15.503Z,46.72
2017-05-21T09:56:17.363Z,47.46
2017-05-21T09:57:31.492Z,47.20
2017-05-21T09:58:33.326Z,46.72
2017-05-21T09:59:35.178Z,47.00
2017-05-21T10:00:37.036Z,47.30
2017-05-21T10:01:38.887Z,47.30
2017-05-21T10:02:40.741Z,46.91
2017-05-21T10:03:42.591Z,46.98
2017-05-21T10:04:44.424Z,46.89
2017-05-21T10:05:46.299Z,47.75
2017-05-21T10:07:00.435Z,48.61
2017-05-21T10:08:02.370Z,48.23
2017-05-21T10:09:04.280Z,48.33
2017-05-21T10:10:06.130Z,48.49
2017-05-21T10:11:08.108Z,48.61
2017-05-21T10:12:09.960Z,48.04
2017-05-21T10:13:11.795Z,47.17
2017-05-21T10:14:13.644Z,47.66
2017-05-21T10:15:15.479Z,47.36
2017-05-21T10:16:29.655Z,46.23
2017-05-21T10:17:31.513Z,45.08
2017-05-21T10:18:33.363Z,45.56
2017-05-21T10:19:35.192Z,45.47
2017-05-21T10:20:37.052Z,45.56
2017-05-21T10:21:39.104Z,45.47
2017-05-21T10:22:40.931Z,45.35
2017-05-21T10:23:42.758Z,46.59
2017-05-21T10:24:44.609Z,46.79
2017-05-21T10:25:58.722Z,47.17
2017-05-21T10:27:00.547Z,46.98
2017-05-21T10:28:02.369Z,47.36
2017-05-21T10:29:04.227Z,47.27
2017-05-21T10:30:06.086Z,47.10
2017-05-21T10:31:07.937Z,46.72
2017-05-21T10:32:09.814Z,46.72
2017-05-21T10:33:11.643Z,46.23
2017-05-21T10:34:13.464Z,45.08
2017-05-21T10:35:27.608Z,44.89
2017-05-21T10:36:29.436Z,45.56
2017-05-21T10:37:31.387Z,45.18
2017-05-21T10:38:33.241Z,45.87
2017-05-21T10:39:35.087Z,45.29
2017-05-21T10:40:36.923Z,45.78
2017-05-21T10:41:38.777Z,45.59
2017-05-21T10:42:40.799Z,45.87
2017-05-21T10:43:42.653Z,45.20
2017-05-21T10:44:56.759Z,46.53
2017-05-21T10:45:58.591Z,46.04
2017-05-21T10:47:00.441Z,45.95
2017-05-21T10:48:02.369Z,46.21
2017-05-21T10:49:04.195Z,46.69
2017-05-21T10:50:06.051Z,46.69
2017-05-21T10:51:07.897Z,46.89
2017-05-21T10:52:09.725Z,47.27
2017-05-21T10:53:11.577Z,47.46
2017-05-21T10:54:25.714Z,47.30
2017-05-21T10:55:27.568Z,46.53
2017-05-21T10:56:29.423Z,44.89
2017-05-21T10:57:31.255Z,44.89
2017-05-21T10:58:33.138Z,45.18
2017-05-21T10:59:34.971Z,45.66
2017-05-21T11:00:36.821Z,45.20
2017-05-21T11:01:38.653Z,44.53
2017-05-21T11:02:40.508Z,43.66
2017-05-21T11:03:54.645Z,43.95
2017-05-21T11:04:56.504Z,44.55
2017-05-21T11:05:58.373Z,43.95
2017-05-21T11:07:00.405Z,43.37
2017-05-21T11:08:02.277Z,43.08
2017-05-21T11:09:04.133Z,43.08
2017-05-21T11:10:05.984Z,43.18
2017-05-21T11:11:07.834Z,43.45
2017-05-21T11:12:09.698Z,44.22
2017-05-21T11:13:23.795Z,44.22
2017-05-21T11:14:25.626Z,44.22
2017-05-21T11:15:27.486Z,44.02
2017-05-21T11:16:29.338Z,43.74
2017-05-21T11:17:31.168Z,44.89
2017-05-21T11:18:33.077Z,44.12
2017-05-21T11:19:34.910Z,43.28
2017-05-21T11:20:36.773Z,43.08
2017-05-21T11:21:38.690Z,41.35
2017-05-21T11:22:53.040Z,40.97
2017-05-21T11:23:54.916Z,42.10
2017-05-21T11:24:56.790Z,42.30
2017-05-21T11:25:58.673Z,43.07
2017-05-21T11:27:00.537Z,42.58
2017-05-21T11:28:02.403Z,43.16
2017-05-21T11:29:04.322Z,41.24
2017-05-21T11:30:06.310Z,41.06
2017-05-21T11:31:08.173Z,42.22
2017-05-21T11:32:22.317Z,41.93
2017-05-21T11:33:24.196Z,42.33
2017-05-21T11:34:26.046Z,42.63
2017-05-21T11:35:27.934Z,41.76
2017-05-21T11:36:29.804Z,41.76
2017-05-21T11:37:31.634Z,41.76
2017-05-21T11:38:33.509Z,42.24
2017-05-21T11:39:35.321Z,42.43
2017-05-21T11:40:37.444Z,42.36
2017-05-21T11:41:51.606Z,42.16
2017-05-21T11:42:53.458Z,41.20
2017-05-21T11:43:55.293Z,40.43
2017-05-21T11:44:57.226Z,40.63
2017-05-21T11:45:59.167Z,40.41
2017-05-21T11:47:01.020Z,40.22
2017-05-21T11:48:02.879Z,39.64
2017-05-21T11:49:04.767Z,39.74
2017-05-21T11:50:06.719Z,40.12
2017-05-21T11:51:20.898Z,40.80
2017-05-21T11:52:22.814Z,40.89
2017-05-21T11:53:24.680Z,40.61
2017-05-21T11:54:26.540Z,41.08
2017-05-21T11:55:28.396Z,40.80
2017-05-21T11:56:30.247Z,39.83
2017-05-21T11:57:32.229Z,38.68
2017-05-21T11:58:34.092Z,38.78
2017-05-21T11:59:35.945Z,38.68
2017-05-21T12:00:50.050Z,38.97
2017-05-21T12:01:51.904Z,38.87
2017-05-21T12:02:53.761Z,38.41
2017-05-21T12:03:55.614Z,39.09
2017-05-21T12:04:57.479Z,39.76
2017-05-21T12:05:59.340Z,39.95
2017-05-21T12:07:01.193Z,39.86
2017-05-21T12:08:03.047Z,40.05
2017-05-21T12:09:04.899Z,39.87
2017-05-21T12:10:19.033Z,39.68
2017-05-21T12:11:20.865Z,39.29
2017-05-21T12:12:22.894Z,39.68
2017-05-21T12:13:24.809Z,39.86
2017-05-21T12:14:26.645Z,39.97
2017-05-21T12:15:28.500Z,40.36
2017-05-21T12:16:30.360Z,39.97
2017-05-21T12:17:32.212Z,39.87
2017-05-21T12:18:34.042Z,39.97
2017-05-21T12:19:48.176Z,40.14
2017-05-21T12:20:50.008Z,40.14
2017-05-21T12:21:51.860Z,41.20
2017-05-21T12:22:53.720Z,41.01
2017-05-21T12:23:55.570Z,40.05
2017-05-21T12:24:57.396Z,39.95
2017-05-21T12:25:59.225Z,38.51
2017-05-21T12:27:01.081Z,38.41
2017-05-21T12:28:03.185Z,38.70
2017-05-21T12:29:17.345Z,39.20
2017-05-21T12:30:19.171Z,38.33
2017-05-21T12:31:21.034Z,38.06
2017-05-21T12:32:22.891Z,38.33
2017-05-21T12:33:24.738Z,39.49
2017-05-21T12:34:26.567Z,39.97
2017-05-21T12:35:28.420Z,39.86
2017-05-21T12:36:30.277Z,39.76
2017-05-21T12:37:32.133Z,40.14
2017-05-21T12:38:46.477Z,40.03
2017-05-21T12:39:48.329Z,39.95
2017-05-21T12:40:50.179Z,40.63
2017-05-21T12:41:52.012Z,38.79
2017-05-21T12:42:53.854Z,38.31
2017-05-21T12:43:55.740Z,38.14
2017-05-21T12:44:57.590Z,38.91
2017-05-21T12:45:59.442Z,38.14
2017-05-21T12:47:01.278Z,38.45
2017-05-21T12:48:15.442Z,37.87
2017-05-21T12:49:17.294Z,37.10
2017-05-21T12:50:19.125Z,36.91
2017-05-21T12:51:20.950Z,37.58
2017-05-21T12:52:22.779Z,38.16
2017-05-21T12:53:24.637Z,38.43
2017-05-21T12:54:26.592Z,36.31
2017-05-21T12:55:28.420Z,36.58
2017-05-21T12:56:30.250Z,36.79
2017-05-21T12:57:44.441Z,36.87
2017-05-21T12:58:46.290Z,36.87
2017-05-21T12:59:48.199Z,36.87
2017-05-21T13:00:50.052Z,37.74
2017-05-21T13:01:51.904Z,37.18
2017-05-21T13:02:53.739Z,37.85
2017-05-21T13:03:55.592Z,37.95
2017-05-21T13:04:57.449Z,36.61
2017-05-21T13:05:59.277Z,36.43
2017-05-21T13:07:13.417Z,36.81
2017-05-21T13:08:15.266Z,37.10
2017-05-21T13:09:17.101Z,37.19
2017-05-21T13:10:18.962Z,37.56
2017-05-21T13:11:20.811Z,37.85
2017-05-21T13:12:22.667Z,38.41
2017-05-21T13:13:24.487Z,38.02
2017-05-21T13:14:26.319Z,38.31
2017-05-21T13:15:28.421Z,39.18
2017-05-21T13:16:42.558Z,38.91
2017-05-21T13:17:44.411Z,38.70
2017-05-21T13:18:46.236Z,38.12
2017-05-21T13:19:48.070Z,38.89
2017-05-21T13:20:49.942Z,37.93
2017-05-21T13:21:51.772Z,37.54
2017-05-21T13:22:53.630Z,37.74
2017-05-21T13:23:55.477Z,37.64
2017-05-21T13:24:57.309Z,36.49
2017-05-21T13:26:11.466Z,37.64
2017-05-21T13:27:13.296Z,38.02
2017-05-21T13:28:15.151Z,38.04
2017-05-21T13:29:17.014Z,37.66
2017-05-21T13:30:18.844Z,37.56
2017-05-21T13:31:20.893Z,36.89
2017-05-21T13:32:22.745Z,36.69
2017-05-21T13:33:24.605Z,37.48
2017-05-21T13:34:26.463Z,36.52